createdAt,value
2018-06-30T00:00:56.102Z,64.37
2018-06-30T00:01:56.167Z,64.24
2018-06-30T00:02:56.076Z,64.27
2018-06-30T00:03:56.066Z,63.73
2018-06-30T00:04:56.056Z,64.34
2018-06-30T00:05:56.046Z,64.67
2018-06-30T00:06:56.035Z,64.67
2018-06-30T00:07:56.099Z,65.07
2018-06-30T00:08:56.029Z,64.87
2018-06-30T00:09:56.002Z,64.77
2018-06-30T00:10:55.996Z,64.67
2018-06-30T00:11:55.984Z,64.67
2018-06-30T00:12:56.036Z,64.97
2018-06-30T00:13:55.959Z,65.07
2018-06-30T00:14:55.951Z,65.47
2018-06-30T00:15:55.937Z,65.37
2018-06-30T00:16:55.935Z,65.27
2018-06-30T00:17:55.982Z,65.50
2018-06-30T00:18:55.904Z,66.00
2018-06-30T00:19:55.892Z,66.31
2018-06-30T00:20:55.909Z,67.11
2018-06-30T00:21:55.868Z,66.41
2018-06-30T00:22:55.931Z,66.51
2018-06-30T00:23:55.851Z,66.11
2018-06-30T00:24:55.842Z,66.51
2018-06-30T00:25:55.828Z,66.20
2018-06-30T00:26:55.825Z,67.01
2018-06-30T00:27:55.874Z,66.51
2018-06-30T00:28:55.796Z,66.71
2018-06-30T00:29:55.773Z,66.91
2018-06-30T00:30:55.773Z,66.91
2018-06-30T00:31:55.767Z,67.21
2018-06-30T00:32:55.823Z,67.71
2018-06-30T00:33:55.738Z,67.31
2018-06-30T00:34:55.735Z,67.61
2018-06-30T00:35:55.734Z,67.74
2018-06-30T00:36:55.709Z,67.94
2018-06-30T00:37:55.765Z,67.04
2018-06-30T00:38:55.689Z,68.05
2018-06-30T00:39:55.675Z,68.55
2018-06-30T00:40:55.671Z,68.95
2018-06-30T00:41:55.665Z,68.95
2018-06-30T00:42:55.706Z,69.06
2018-06-30T00:43:55.638Z,68.85
2018-06-30T00:44:55.624Z,69.15
2018-06-30T00:45:55.611Z,69.09
2018-06-30T00:46:55.605Z,68.98
2018-06-30T00:47:55.664Z,69.49
2018-06-30T00:48:55.587Z,69.69
2018-06-30T00:49:55.573Z,69.89
2018-06-30T00:50:55.565Z,69.49
2018-06-30T00:51:55.564Z,69.49
2018-06-30T00:52:55.605Z,69.79
2018-06-30T00:53:55.531Z,69.59
2018-06-30T00:54:55.523Z,69.99
2018-06-30T00:55:55.506Z,69.99
2018-06-30T00:56:55.490Z,69.69
2018-06-30T00:57:55.554Z,69.79
2018-06-30T00:58:55.485Z,69.69
2018-06-30T00:59:55.464Z,69.09
2018-06-30T01:00:55.465Z,69.89
2018-06-30T01:01:55.442Z,69.79
2018-06-30T01:02:55.495Z,70.09
2018-06-30T01:03:55.423Z,69.89
2018-06-30T01:04:55.415Z,69.79
2018-06-30T01:05:55.395Z,69.49
2018-06-30T01:06:55.388Z,69.38
2018-06-30T01:07:55.444Z,69.89
2018-06-30T01:08:55.368Z,70.19
2018-06-30T01:09:55.364Z,70.32
2018-06-30T01:10:55.345Z,70.43
2018-06-30T01:11:55.331Z,70.53
2018-06-30T01:12:55.378Z,70.83
2018-06-30T01:13:55.306Z,71.13
2018-06-30T01:14:55.302Z,70.83
2018-06-30T01:15:55.298Z,71.03
2018-06-30T01:16:55.269Z,70.83
2018-06-30T01:17:55.338Z,70.63
2018-06-30T01:18:55.259Z,71.13
2018-06-30T01:19:55.243Z,70.83
2018-06-30T01:20:55.235Z,71.03
2018-06-30T01:21:55.233Z,71.03
2018-06-30T01:22:55.284Z,71.77
2018-06-30T01:23:55.200Z,71.33
2018-06-30T01:24:55.185Z,71.33
2018-06-30T01:25:55.179Z,71.56
2018-06-30T01:26:55.169Z,71.26
2018-06-30T01:27:55.229Z,71.13
2018-06-30T01:28:55.144Z,70.96
2018-06-30T01:29:55.143Z,71.26
2018-06-30T01:30:55.118Z,71.56
2018-06-30T01:31:55.128Z,71.97
2018-06-30T01:32:55.175Z,72.47
2018-06-30T01:33:55.091Z,72.67
2018-06-30T01:34:55.081Z,72.17
2018-06-30T01:35:55.072Z,72.00
2018-06-30T01:36:55.062Z,72.77
2018-06-30T01:37:55.114Z,72.88
2018-06-30T01:38:55.040Z,72.88
2018-06-30T01:39:55.034Z,72.27
2018-06-30T01:40:55.015Z,72.27
2018-06-30T01:41:55.001Z,71.97
2018-06-30T01:42:55.060Z,72.47
2018-06-30T01:43:54.984Z,71.67
2018-06-30T01:44:54.976Z,72.17
2018-06-30T01:45:54.958Z,71.97
2018-06-30T01:46:54.940Z,72.77
2018-06-30T01:47:55.009Z,72.67
2018-06-30T01:48:54.926Z,72.97
2018-06-30T01:49:54.916Z,73.18
2018-06-30T01:50:54.905Z,73.08
2018-06-30T01:51:54.891Z,72.67
2018-06-30T01:52:54.883Z,72.88
2018-06-30T01:53:54.942Z,72.77
2018-06-30T01:54:54.861Z,73.28
2018-06-30T01:55:54.857Z,73.52
2018-06-30T01:56:54.839Z,73.01
2018-06-30T01:57:54.828Z,73.92
2018-06-30T01:58:54.876Z,73.75
2018-06-30T01:59:54.815Z,73.85
2018-06-30T02:00:54.793Z,74.35
2018-06-30T02:01:54.784Z,74.46
2018-06-30T02:02:54.774Z,74.35
2018-06-30T02:03:54.834Z,74.79
2018-06-30T02:04:54.747Z,75.16
2018-06-30T02:05:54.741Z,75.20
2018-06-30T02:06:54.727Z,74.66
2018-06-30T02:07:54.724Z,74.79
2018-06-30T02:08:54.782Z,74.59
2018-06-30T02:09:54.695Z,75.10
2018-06-30T02:10:54.683Z,74.49
2018-06-30T02:11:54.675Z,74.49
2018-06-30T02:12:54.665Z,74.19
2018-06-30T02:13:54.714Z,73.48
2018-06-30T02:14:54.644Z,73.88
2018-06-30T02:15:54.631Z,74.39
2018-06-30T02:16:54.740Z,73.58
2018-06-30T02:17:54.609Z,73.58
2018-06-30T02:18:54.667Z,73.99
2018-06-30T02:19:54.593Z,74.08
2018-06-30T02:20:54.576Z,73.88
2018-06-30T02:21:54.570Z,74.08
2018-06-30T02:22:54.552Z,73.58
2018-06-30T02:23:54.608Z,74.29
2018-06-30T02:24:54.530Z,74.29
2018-06-30T02:25:54.517Z,74.19
2018-06-30T02:26:54.507Z,73.38
2018-06-30T02:27:54.501Z,73.68
2018-06-30T02:28:54.553Z,73.58
2018-06-30T02:29:54.479Z,73.42
2018-06-30T02:30:54.468Z,73.68
2018-06-30T02:31:54.452Z,74.22
2018-06-30T02:32:54.443Z,73.92
2018-06-30T02:33:54.499Z,73.82
2018-06-30T02:34:54.423Z,74.12
2018-06-30T02:35:54.409Z,73.92
2018-06-30T02:36:54.402Z,74.12
2018-06-30T02:37:54.388Z,73.92
2018-06-30T02:38:54.503Z,74.12
2018-06-30T02:39:54.364Z,73.92
2018-06-30T02:40:54.359Z,74.16
2018-06-30T02:41:54.348Z,74.12
2018-06-30T02:42:54.344Z,73.96
2018-06-30T02:43:54.388Z,74.16
2018-06-30T02:44:54.317Z,74.05
2018-06-30T02:45:54.363Z,73.85
2018-06-30T02:46:54.294Z,73.96
2018-06-30T02:47:54.282Z,73.75
2018-06-30T02:48:54.339Z,74.56
2018-06-30T02:49:54.262Z,74.46
2018-06-30T02:50:54.251Z,74.87
2018-06-30T02:51:54.236Z,74.60
2018-06-30T02:52:54.230Z,74.66
2018-06-30T02:53:54.288Z,74.46
2018-06-30T02:54:54.206Z,74.56
2018-06-30T02:55:54.196Z,75.00
2018-06-30T02:56:54.185Z,75.20
2018-06-30T02:57:54.176Z,75.00
2018-06-30T02:58:54.229Z,75.31
2018-06-30T02:59:54.151Z,74.40
2018-06-30T03:00:54.138Z,74.80
2018-06-30T03:01:54.134Z,74.90
2018-06-30T03:02:54.122Z,74.29
2018-06-30T03:03:54.185Z,74.80
2018-06-30T03:04:54.095Z,74.80
2018-06-30T03:05:54.090Z,74.93
2018-06-30T03:06:54.090Z,74.93
2018-06-30T03:07:54.069Z,75.24
2018-06-30T03:08:54.129Z,74.84
2018-06-30T03:09:54.048Z,74.93
2018-06-30T03:10:54.034Z,74.84
2018-06-30T03:11:54.022Z,75.24
2018-06-30T03:12:54.015Z,75.24
2018-06-30T03:13:54.001Z,74.93
2018-06-30T03:14:54.051Z,75.34
2018-06-30T03:15:53.982Z,76.75
2018-06-30T03:16:53.963Z,76.69
2018-06-30T03:17:53.963Z,76.59
2018-06-30T03:18:53.947Z,76.59
2018-06-30T03:19:54.009Z,76.08
2018-06-30T03:20:53.925Z,75.88
2018-06-30T03:21:53.915Z,76.48
2018-06-30T03:22:53.905Z,76.28
2018-06-30T03:23:53.882Z,76.39
2018-06-30T03:24:53.959Z,76.59
2018-06-30T03:25:53.874Z,76.69
2018-06-30T03:26:53.866Z,76.39
2018-06-30T03:27:53.854Z,76.39
2018-06-30T03:28:53.835Z,76.39
2018-06-30T03:29:53.882Z,76.48
2018-06-30T03:30:53.819Z,76.69
2018-06-30T03:31:53.814Z,76.48
2018-06-30T03:32:53.800Z,76.59
2018-06-30T03:33:53.782Z,76.48
2018-06-30T03:34:53.842Z,76.69
2018-06-30T03:35:53.759Z,76.48
2018-06-30T03:36:53.757Z,76.59
2018-06-30T03:37:53.741Z,76.69
2018-06-30T03:38:53.738Z,76.59
2018-06-30T03:39:53.780Z,76.79
2018-06-30T03:40:53.710Z,76.59
2018-06-30T03:41:53.696Z,76.39
2018-06-30T03:42:53.687Z,76.59
2018-06-30T03:43:53.674Z,76.48
2018-06-30T03:44:53.728Z,76.42
2018-06-30T03:45:53.654Z,76.99
2018-06-30T03:46:53.643Z,76.48
2018-06-30T03:47:53.632Z,76.79
2018-06-30T03:48:53.620Z,77.29
2018-06-30T03:49:53.677Z,77.43
2018-06-30T03:50:53.642Z,77.64
2018-06-30T03:51:53.587Z,77.33
2018-06-30T03:52:53.581Z,77.64
2018-06-30T03:53:53.569Z,77.73
2018-06-30T03:54:53.622Z,77.43
2018-06-30T03:55:53.543Z,77.33
2018-06-30T03:56:53.534Z,77.43
2018-06-30T03:57:53.522Z,77.23
2018-06-30T03:58:53.513Z,77.33
2018-06-30T03:59:53.569Z,77.73
2018-06-30T04:00:53.489Z,77.29
2018-06-30T04:01:53.479Z,77.53
2018-06-30T04:02:53.463Z,77.53
2018-06-30T04:03:53.456Z,77.53
2018-06-30T04:04:53.514Z,77.39
2018-06-30T04:05:53.433Z,77.70
2018-06-30T04:06:53.423Z,77.39
2018-06-30T04:07:53.413Z,77.64
2018-06-30T04:08:53.399Z,77.09
2018-06-30T04:09:53.456Z,77.60
2018-06-30T04:10:53.380Z,77.70
2018-06-30T04:11:53.366Z,77.29
2018-06-30T04:12:53.360Z,77.29
2018-06-30T04:13:53.357Z,77.94
2018-06-30T04:14:53.402Z,77.43
2018-06-30T04:15:53.329Z,77.73
2018-06-30T04:16:53.322Z,77.73
2018-06-30T04:17:53.303Z,78.24
2018-06-30T04:18:53.303Z,78.24
2018-06-30T04:19:53.361Z,77.84
2018-06-30T04:20:53.270Z,77.84
2018-06-30T04:21:53.262Z,78.64
2018-06-30T04:22:53.254Z,78.55
2018-06-30T04:23:53.241Z,78.34
2018-06-30T04:24:53.299Z,78.30
2018-06-30T04:25:53.216Z,77.70
2018-06-30T04:26:53.212Z,78.20
2018-06-30T04:27:53.200Z,78.20
2018-06-30T04:28:53.186Z,78.20
2018-06-30T04:29:53.259Z,77.80
2018-06-30T04:30:53.172Z,77.90
2018-06-30T04:31:53.155Z,77.29
2018-06-30T04:32:53.145Z,77.66
2018-06-30T04:33:53.139Z,76.75
2018-06-30T04:34:53.192Z,76.95
2018-06-30T04:35:53.114Z,76.65
2018-06-30T04:36:53.111Z,77.06
2018-06-30T04:37:53.086Z,76.86
2018-06-30T04:38:53.084Z,76.95
2018-06-30T04:39:53.139Z,76.86
2018-06-30T04:40:53.057Z,76.75
2018-06-30T04:41:53.049Z,76.86
2018-06-30T04:42:53.039Z,76.31
2018-06-30T04:43:53.024Z,76.31
2018-06-30T04:44:53.088Z,76.28
2018-06-30T04:45:53.008Z,76.58
2018-06-30T04:46:52.992Z,75.98
2018-06-30T04:47:52.987Z,75.47
2018-06-30T04:48:52.972Z,75.37
2018-06-30T04:49:53.039Z,74.96
2018-06-30T04:50:53.002Z,74.83
2018-06-30T04:51:52.940Z,75.13
2018-06-30T04:52:52.928Z,74.76
2018-06-30T04:53:52.924Z,74.52
2018-06-30T04:54:52.906Z,74.63
2018-06-30T04:55:52.963Z,75.03
2018-06-30T04:56:52.885Z,74.39
2018-06-30T04:57:52.881Z,74.90
2018-06-30T04:58:52.862Z,74.69
2018-06-30T04:59:52.850Z,73.48
2018-06-30T05:00:52.910Z,74.02
2018-06-30T05:01:52.829Z,74.19
2018-06-30T05:02:52.820Z,73.68
2018-06-30T05:03:52.816Z,73.75
2018-06-30T05:04:52.804Z,73.95
2018-06-30T05:05:52.851Z,73.55
2018-06-30T05:06:52.780Z,73.75
2018-06-30T05:07:52.766Z,73.95
2018-06-30T05:08:52.761Z,72.85
2018-06-30T05:09:52.744Z,73.35
2018-06-30T05:10:52.798Z,73.28
2018-06-30T05:11:52.727Z,73.38
2018-06-30T05:12:52.760Z,73.48
2018-06-30T05:13:52.701Z,73.88
2018-06-30T05:14:52.695Z,73.88
2018-06-30T05:15:52.749Z,74.08
2018-06-30T05:16:52.664Z,73.55
2018-06-30T05:17:52.657Z,73.95
2018-06-30T05:18:52.647Z,73.41
2018-06-30T05:19:52.636Z,73.01
2018-06-30T05:20:52.695Z,73.21
2018-06-30T05:21:52.609Z,72.07
2018-06-30T05:22:52.600Z,71.97
2018-06-30T05:23:52.590Z,71.94
2018-06-30T05:24:52.578Z,71.13
2018-06-30T05:25:52.656Z,70.63
2018-06-30T05:26:52.564Z,70.86
2018-06-30T05:27:52.549Z,71.63
2018-06-30T05:28:52.533Z,71.13
2018-06-30T05:29:52.525Z,70.73
2018-06-30T05:30:52.586Z,70.63
2018-06-30T05:31:52.510Z,70.63
2018-06-30T05:32:52.496Z,70.83
2018-06-30T05:33:52.479Z,70.83
2018-06-30T05:34:52.469Z,70.73
2018-06-30T05:35:52.531Z,70.29
2018-06-30T05:36:52.449Z,70.50
2018-06-30T05:37:52.443Z,70.29
2018-06-30T05:38:52.432Z,70.39
2018-06-30T05:39:52.414Z,70.29
2018-06-30T05:40:52.478Z,69.65
2018-06-30T05:41:52.400Z,69.85
2018-06-30T05:42:52.388Z,69.56
2018-06-30T05:43:52.384Z,69.56
2018-06-30T05:44:52.367Z,69.56
2018-06-30T05:45:52.418Z,69.76
2018-06-30T05:46:52.343Z,69.56
2018-06-30T05:47:52.328Z,69.56
2018-06-30T05:48:52.324Z,69.62
2018-06-30T05:49:52.328Z,69.52
2018-06-30T05:50:52.376Z,69.72
2018-06-30T05:51:52.293Z,69.22
2018-06-30T05:52:52.285Z,69.12
2018-06-30T05:53:52.279Z,69.02
2018-06-30T05:54:52.262Z,69.12
2018-06-30T05:55:52.312Z,68.92
2018-06-30T05:56:52.232Z,69.32
2018-06-30T05:57:52.224Z,68.92
2018-06-30T05:58:52.211Z,69.52
2018-06-30T05:59:52.211Z,69.12
2018-06-30T06:00:52.265Z,68.52
2018-06-30T06:01:52.178Z,68.68
2018-06-30T06:02:52.171Z,68.38
2018-06-30T06:03:52.156Z,67.78
2018-06-30T06:04:52.149Z,67.78
2018-06-30T06:05:52.202Z,66.98
2018-06-30T06:06:52.129Z,67.48
2018-06-30T06:07:52.113Z,67.18
2018-06-30T06:08:52.106Z,67.28
2018-06-30T06:09:52.196Z,67.35
2018-06-30T06:10:52.151Z,67.25
2018-06-30T06:11:52.071Z,67.25
2018-06-30T06:12:52.063Z,66.75
2018-06-30T06:13:52.052Z,66.75
2018-06-30T06:14:52.040Z,66.75
2018-06-30T06:15:52.116Z,66.91
2018-06-30T06:16:52.012Z,67.02
2018-06-30T06:17:52.009Z,66.31
2018-06-30T06:18:52.025Z,67.02
2018-06-30T06:19:51.979Z,65.28
2018-06-30T06:20:52.041Z,66.18
2018-06-30T06:21:51.947Z,64.58
2018-06-30T06:22:51.951Z,64.58
2018-06-30T06:23:51.946Z,65.08
2018-06-30T06:24:51.928Z,64.58
2018-06-30T06:25:52.006Z,64.58
2018-06-30T06:26:51.905Z,64.98
2018-06-30T06:27:51.945Z,64.65
2018-06-30T06:28:51.887Z,64.54
2018-06-30T06:29:51.887Z,64.34
2018-06-30T06:30:51.977Z,63.34
2018-06-30T06:31:51.852Z,63.11
2018-06-30T06:32:51.888Z,65.15
2018-06-30T06:33:51.832Z,64.54
2018-06-30T06:34:51.820Z,64.15
2018-06-30T06:35:51.809Z,63.45
2018-06-30T06:36:51.877Z,63.45
2018-06-30T06:37:51.789Z,63.45
2018-06-30T06:38:51.772Z,63.31
2018-06-30T06:39:51.763Z,63.87
2018-06-30T06:40:51.750Z,64.58
2018-06-30T06:41:51.843Z,64.54
2018-06-30T06:42:51.731Z,64.48
2018-06-30T06:43:51.721Z,64.34
2018-06-30T06:44:51.711Z,63.14
2018-06-30T06:45:51.699Z,63.31
2018-06-30T06:46:51.745Z,63.51
2018-06-30T06:47:51.674Z,63.71
2018-06-30T06:48:51.670Z,62.38
2018-06-30T06:49:51.652Z,62.35
2018-06-30T06:50:51.641Z,61.49
2018-06-30T06:51:51.709Z,60.27
2018-06-30T06:52:51.617Z,59.06
2018-06-30T06:53:51.612Z,59.99
2018-06-30T06:54:51.600Z,59.82
2018-06-30T06:55:51.608Z,61.49
2018-06-30T06:56:51.692Z,61.02
2018-06-30T06:57:51.574Z,61.22
2018-06-30T06:58:51.560Z,60.59
2018-06-30T06:59:51.540Z,61.12
2018-06-30T07:00:51.535Z,60.42
2018-06-30T07:01:51.601Z,61.62
2018-06-30T07:02:51.548Z,61.42
2018-06-30T07:03:51.513Z,61.22
2018-06-30T07:04:51.495Z,61.19
2018-06-30T07:05:51.478Z,61.16
2018-06-30T07:06:51.546Z,60.57
2018-06-30T07:07:51.462Z,60.96
2018-06-30T07:08:51.499Z,60.96
2018-06-30T07:09:51.447Z,59.66
2018-06-30T07:10:51.428Z,59.47
2018-06-30T07:11:51.532Z,59.17
2018-06-30T07:12:51.405Z,58.86
2018-06-30T07:13:51.395Z,59.17
2018-06-30T07:14:51.385Z,59.97
2018-06-30T07:15:51.370Z,59.64
2018-06-30T07:16:51.419Z,59.14
2018-06-30T07:17:51.348Z,58.71
2018-06-30T07:18:51.340Z,58.91
2018-06-30T07:19:51.328Z,58.91
2018-06-30T07:20:51.324Z,58.81
2018-06-30T07:21:51.510Z,58.91
2018-06-30T07:22:51.305Z,58.94
2018-06-30T07:23:51.285Z,58.31
2018-06-30T07:24:51.277Z,59.01
2018-06-30T07:25:51.294Z,58.71
2018-06-30T07:26:51.334Z,58.81
2018-06-30T07:27:51.251Z,58.31
2018-06-30T07:28:51.233Z,58.28
2018-06-30T07:29:51.225Z,57.91
2018-06-30T07:30:51.218Z,59.01
2018-06-30T07:31:51.288Z,58.81
2018-06-30T07:32:51.194Z,58.58
2018-06-30T07:33:51.186Z,58.08
2018-06-30T07:34:51.212Z,57.48
2018-06-30T07:35:51.161Z,57.65
2018-06-30T07:36:51.209Z,56.85
2018-06-30T07:37:51.145Z,55.76
2018-06-30T07:38:51.135Z,57.26
2018-06-30T07:39:51.118Z,57.23
2018-06-30T07:40:51.109Z,57.63
2018-06-30T07:41:51.393Z,56.43
2018-06-30T07:42:51.074Z,56.76
2018-06-30T07:43:51.070Z,57.06
2018-06-30T07:44:51.070Z,56.96
2018-06-30T07:45:59.915Z,57.35
2018-06-30T07:46:51.213Z,57.56
2018-06-30T07:47:51.216Z,56.23
2018-06-30T07:48:51.016Z,56.53
2018-06-30T07:49:51.013Z,57.10
2018-06-30T07:50:51.094Z,55.91
2018-06-30T07:53:18.455Z,54.91
2018-06-30T07:54:18.417Z,55.31
2018-06-30T07:55:18.346Z,55.51
2018-06-30T07:56:19.205Z,56.13
2018-06-30T07:57:18.348Z,55.04
2018-06-30T07:58:18.226Z,55.63
2018-06-30T07:59:18.218Z,55.73
2018-06-30T08:00:18.214Z,55.83
2018-06-30T08:01:18.200Z,56.73
2018-06-30T08:02:18.291Z,57.06
2018-06-30T08:03:18.171Z,56.03
2018-06-30T08:04:18.161Z,55.63
2018-06-30T08:05:18.152Z,56.43
2018-06-30T08:06:18.142Z,57.82
2018-06-30T08:07:18.250Z,55.31
2018-06-30T08:08:18.125Z,55.71
2018-06-30T08:09:28.962Z,55.71
2018-06-30T08:10:18.242Z,54.51
2018-06-30T08:11:18.162Z,53.81
2018-06-30T08:12:18.242Z,54.51
2018-06-30T08:13:18.115Z,54.11
2018-06-30T08:14:18.056Z,54.51
2018-06-30T08:15:18.042Z,54.21
2018-06-30T08:16:18.043Z,55.51
2018-06-30T08:17:19.936Z,53.69
2018-06-30T08:18:18.019Z,55.28
2018-06-30T08:19:18.056Z,54.98
2018-06-30T08:21:42.302Z,53.53
2018-06-30T08:22:42.206Z,53.14
2018-06-30T08:23:42.195Z,53.64
2018-06-30T08:24:42.173Z,52.34
2018-06-30T08:25:42.038Z,51.54
2018-06-30T08:26:42.026Z,51.42
2018-06-30T08:27:42.117Z,50.93
2018-06-30T08:28:42.001Z,51.40
2018-06-30T08:29:41.985Z,51.40
2018-06-30T08:30:41.980Z,50.78
2018-06-30T08:31:44.008Z,50.48
2018-06-30T08:32:42.029Z,50.75
2018-06-30T08:33:41.941Z,50.26
2018-06-30T08:34:42.073Z,50.03
2018-06-30T08:35:41.919Z,49.74
2018-06-30T08:36:41.911Z,50.13
2018-06-30T08:37:44.819Z,49.76
2018-06-30T08:38:45.832Z,50.18
2018-06-30T08:39:41.881Z,50.65
2018-06-30T08:42:34.611Z,49.56
2018-06-30T08:43:34.598Z,49.96
2018-06-30T08:44:34.628Z,49.54
2018-06-30T08:45:34.527Z,49.14
2018-06-30T08:46:34.418Z,49.54
2018-06-30T08:47:34.493Z,50.03
2018-06-30T08:49:50.852Z,49.02
2018-06-30T08:50:50.846Z,48.02
2018-06-30T08:51:50.793Z,49.24
2018-06-30T08:52:50.856Z,49.61
2018-06-30T08:53:50.712Z,49.71
2018-06-30T08:54:50.653Z,49.21
2018-06-30T08:55:50.647Z,48.82
2018-06-30T08:56:50.954Z,47.80
2018-06-30T08:57:50.692Z,48.60
2018-06-30T08:58:50.606Z,48.80
2018-06-30T08:59:52.437Z,47.90
2018-06-30T09:02:01.073Z,47.92
2018-06-30T09:03:01.144Z,49.81
2018-06-30T09:04:01.034Z,49.44
2018-06-30T09:05:01.035Z,50.53
2018-06-30T09:06:00.934Z,50.73
2018-06-30T09:07:00.906Z,50.70
2018-06-30T09:08:08.786Z,49.41
2018-06-30T09:09:01.229Z,50.09
2018-06-30T09:10:01.136Z,49.79
2018-06-30T09:11:00.867Z,49.69
2018-06-30T09:12:00.997Z,48.60
2018-06-30T09:13:00.911Z,49.29
2018-06-30T09:14:00.843Z,48.60
2018-06-30T09:15:00.815Z,48.60
2018-06-30T09:16:00.820Z,49.29
2018-06-30T09:17:00.801Z,48.00
2018-06-30T09:18:00.855Z,48.50
2018-06-30T09:19:00.771Z,49.29
2018-06-30T09:20:00.760Z,49.09
2018-06-30T09:21:00.750Z,49.09
2018-06-30T09:22:00.751Z,48.99
2018-06-30T09:23:01.170Z,49.09
2018-06-30T09:24:00.765Z,49.49
2018-06-30T09:25:00.732Z,49.29
2018-06-30T09:26:00.996Z,49.59
2018-06-30T09:30:07.340Z,48.40
2018-06-30T09:31:07.330Z,49.69
2018-06-30T09:32:08.027Z,49.69
2018-06-30T09:33:07.242Z,49.59
2018-06-30T09:34:07.143Z,48.87
2018-06-30T09:35:07.538Z,48.27
2018-06-30T09:37:31.471Z,49.49
2018-06-30T09:38:31.486Z,49.69
2018-06-30T09:39:31.374Z,49.76
2018-06-30T09:40:31.464Z,49.07
2018-06-30T09:41:31.343Z,48.05
2018-06-30T09:42:31.306Z,48.85
2018-06-30T09:43:31.359Z,47.75
2018-06-30T09:44:31.443Z,48.05
2018-06-30T09:45:31.279Z,48.35
2018-06-30T09:46:33.145Z,47.96
2018-06-30T09:47:31.628Z,48.05
2018-06-30T09:48:43.841Z,48.25
2018-06-30T09:51:20.414Z,48.25
2018-06-30T09:52:14.224Z,47.06
2018-06-30T09:56:59.100Z,47.83
2018-06-30T10:01:07.055Z,47.53
2018-06-30T10:03:19.457Z,47.02
2018-06-30T10:04:17.823Z,47.14
2018-06-30T10:05:17.818Z,47.14
2018-06-30T10:06:18.406Z,46.55
2018-06-30T10:08:52.149Z,46.84
2018-06-30T10:09:52.050Z,47.14
2018-06-30T10:10:56.757Z,46.03
2018-06-30T10:11:52.026Z,46.42
2018-06-30T10:12:51.930Z,46.03
2018-06-30T10:13:51.979Z,46.12
2018-06-30T10:14:51.900Z,45.73
2018-06-30T10:15:51.894Z,46.80
2018-06-30T10:16:51.879Z,46.97
2018-06-30T10:17:51.871Z,45.98
2018-06-30T10:18:51.934Z,44.87
2018-06-30T10:19:51.848Z,44.26
2018-06-30T10:20:51.883Z,44.65
2018-06-30T10:21:51.826Z,44.93
2018-06-30T10:22:51.826Z,43.15
2018-06-30T10:23:51.857Z,42.29
2018-06-30T10:24:52.770Z,43.07
2018-06-30T10:25:51.789Z,42.88
2018-06-30T10:26:52.225Z,42.38
2018-06-30T10:27:51.756Z,42.96
2018-06-30T10:28:51.814Z,42.46
2018-06-30T10:29:52.940Z,41.77
2018-06-30T10:30:51.733Z,42.97
2018-06-30T10:31:51.712Z,43.45
2018-06-30T10:32:51.711Z,42.66
2018-06-30T10:33:51.758Z,43.23
2018-06-30T10:34:51.770Z,42.83
2018-06-30T10:35:51.674Z,42.61
2018-06-30T10:36:51.647Z,42.99
2018-06-30T10:37:51.636Z,41.91
2018-06-30T10:38:51.679Z,39.92
2018-06-30T10:39:51.614Z,41.22
2018-06-30T10:40:51.608Z,41.71
2018-06-30T10:41:51.592Z,41.41
2018-06-30T10:42:51.584Z,39.73
2018-06-30T10:43:51.630Z,39.84
2018-06-30T10:44:51.564Z,41.71
2018-06-30T10:45:51.547Z,41.71
2018-06-30T10:46:51.539Z,40.13
2018-06-30T10:47:51.528Z,40.03
2018-06-30T10:48:51.575Z,40.72
2018-06-30T10:49:51.514Z,41.04
2018-06-30T10:50:51.494Z,40.07
2018-06-30T10:51:51.484Z,41.95
2018-06-30T10:52:51.477Z,41.85
2018-06-30T10:53:51.519Z,42.05
2018-06-30T10:54:51.454Z,41.67
2018-06-30T10:55:51.445Z,41.57
2018-06-30T10:56:51.441Z,42.93
2018-06-30T10:57:51.434Z,39.97
2018-06-30T10:58:51.475Z,40.48
2018-06-30T10:59:51.404Z,39.79
2018-06-30T11:00:51.392Z,41.95
2018-06-30T11:01:51.382Z,39.28
2018-06-30T11:02:51.370Z,39.58
2018-06-30T11:03:51.435Z,41.16
2018-06-30T11:04:51.351Z,39.65
2018-06-30T11:05:51.401Z,39.95
2018-06-30T11:06:51.330Z,40.05
2018-06-30T11:07:51.317Z,41.63
2018-06-30T11:08:51.364Z,40.07
2018-06-30T11:09:51.304Z,40.45
2018-06-30T11:10:51.290Z,41.95
2018-06-30T11:11:51.281Z,39.38
2018-06-30T11:12:51.326Z,40.07
2018-06-30T11:13:51.306Z,39.89
2018-06-30T11:14:51.243Z,40.17
2018-06-30T11:15:51.234Z,41.16
2018-06-30T11:16:51.222Z,40.86
2018-06-30T11:17:51.215Z,39.56
2018-06-30T11:18:51.623Z,40.05
2018-06-30T11:19:51.189Z,40.15
2018-06-30T11:20:51.181Z,39.15
2018-06-30T11:21:51.169Z,39.64
2018-06-30T11:22:51.159Z,41.12
2018-06-30T11:23:51.204Z,41.81
2018-06-30T11:24:51.138Z,40.03
2018-06-30T11:25:51.128Z,39.46
2018-06-30T11:26:51.116Z,41.14
2018-06-30T11:27:51.102Z,41.22
2018-06-30T11:28:51.150Z,39.42
2018-06-30T11:29:51.726Z,39.72
2018-06-30T11:30:51.323Z,38.22
2018-06-30T11:33:10.425Z,38.22
2018-06-30T11:34:08.164Z,38.32
2018-06-30T11:35:05.522Z,38.73
2018-06-30T11:36:03.863Z,38.64
2018-06-30T11:37:03.860Z,39.20
2018-06-30T11:39:34.172Z,39.64
2018-06-30T11:40:34.265Z,39.46
2018-06-30T11:41:34.175Z,39.15
2018-06-30T11:44:49.153Z,38.42
2018-06-30T11:47:01.736Z,39.12
2018-06-30T11:48:01.762Z,38.60
2018-06-30T11:49:01.801Z,37.01
2018-06-30T11:50:01.621Z,37.93
2018-06-30T11:51:01.615Z,38.62
2018-06-30T11:52:01.664Z,38.45
2018-06-30T11:53:01.591Z,39.86
2018-06-30T11:54:01.635Z,39.36
2018-06-30T11:59:34.866Z,41.47
2018-06-30T12:00:34.736Z,41.47
2018-06-30T12:01:41.435Z,39.60
2018-06-30T12:03:58.353Z,39.50
2018-06-30T12:04:58.481Z,39.86
2018-06-30T12:05:58.255Z,38.64
2018-06-30T12:06:58.192Z,37.22
2018-06-30T12:07:58.149Z,36.80
2018-06-30T12:08:58.143Z,37.10
2018-06-30T12:13:25.651Z,37.22
2018-06-30T12:18:54.524Z,36.69
2018-06-30T12:19:13.977Z,36.07
2018-06-30T12:20:13.797Z,35.44
2018-06-30T12:21:13.799Z,35.64
2018-06-30T12:22:13.777Z,34.92
2018-06-30T12:23:13.758Z,33.95
2018-06-30T12:24:13.855Z,34.75
2018-06-30T12:25:13.744Z,35.46
2018-06-30T12:26:13.740Z,35.85
2018-06-30T12:27:15.415Z,35.87
2018-06-30T12:28:13.792Z,35.39
2018-06-30T12:29:13.942Z,36.80
2018-06-30T12:30:13.826Z,37.91
2018-06-30T12:31:13.763Z,37.14
2018-06-30T12:32:13.682Z,37.85
2018-06-30T12:33:13.664Z,38.95
2018-06-30T12:34:13.656Z,38.65
2018-06-30T12:35:15.445Z,37.95
2018-06-30T12:36:13.637Z,36.84
2018-06-30T12:37:14.008Z,37.51
2018-06-30T12:38:14.416Z,36.80
2018-06-30T12:39:13.669Z,36.61
2018-06-30T12:40:13.808Z,36.71
2018-06-30T12:41:13.701Z,36.33
2018-06-30T12:42:13.569Z,37.32
2018-06-30T12:43:13.565Z,36.90
2018-06-30T12:44:14.691Z,36.80
2018-06-30T12:45:14.442Z,36.80
2018-06-30T12:46:13.528Z,36.22
2018-06-30T12:47:13.515Z,36.49
2018-06-30T12:48:13.507Z,35.49
2018-06-30T12:49:13.489Z,36.44
2018-06-30T12:50:13.551Z,35.06
2018-06-30T12:51:13.473Z,35.18
2018-06-30T12:52:13.467Z,36.15
2018-06-30T12:53:14.016Z,34.97
2018-06-30T12:54:13.544Z,34.95
2018-06-30T12:56:32.445Z,35.46
2018-06-30T12:57:31.753Z,34.56
2018-06-30T12:59:52.245Z,35.14
2018-06-30T13:00:52.056Z,34.66
2018-06-30T13:01:52.203Z,33.85
2018-06-30T13:02:51.826Z,34.74
2018-06-30T13:03:51.929Z,35.44
2018-06-30T13:04:54.865Z,34.85
2018-06-30T13:05:51.796Z,35.54
2018-06-30T13:06:51.780Z,34.95
2018-06-30T13:07:51.779Z,36.05
2018-06-30T13:08:51.762Z,35.33
2018-06-30T13:09:51.826Z,33.44
2018-06-30T13:10:51.768Z,35.19
2018-06-30T13:11:51.881Z,32.43
2018-06-30T13:16:02.186Z,34.92
2018-06-30T13:17:13.818Z,32.76
2018-06-30T13:18:02.776Z,33.82
2018-06-30T13:19:02.104Z,32.37
2018-06-30T13:21:12.441Z,32.54
2018-06-30T13:22:12.405Z,32.54
2018-06-30T13:23:25.131Z,32.15
2018-06-30T13:24:12.354Z,32.63
2018-06-30T13:25:12.371Z,32.53
2018-06-30T13:26:12.354Z,33.59
2018-06-30T13:27:12.285Z,31.71
2018-06-30T13:28:23.029Z,31.01
2018-06-30T13:29:12.344Z,31.70
2018-06-30T13:30:12.361Z,31.41
2018-06-30T13:31:12.257Z,30.80
2018-06-30T13:32:12.335Z,30.90
2018-06-30T13:33:12.164Z,30.41
2018-06-30T13:34:12.151Z,31.00
2018-06-30T13:35:12.247Z,31.10
2018-06-30T13:36:12.141Z,31.00
2018-06-30T13:38:31.595Z,31.90
2018-06-30T13:39:31.776Z,31.81
2018-06-30T13:40:33.138Z,31.55
2018-06-30T13:41:31.420Z,32.78
2018-06-30T13:42:35.046Z,33.69
2018-06-30T13:43:33.160Z,35.16